Daihatsumaru — JD2764 — position and weather

sailwx.info

Track history (hours):
 
Tides and Currents Weather Stations Pressure Air Temp Water Temp Dewpoint Dewpoint Depression Visibility Wind Speed Wind Dir Waves Ship Positions

Daihatsumaru

Last reported at 2018-Apr-20 00:57 UTC. Time now 2018-Apr-20 01:16 UTC.
Position N 33°37' E 131°15'.

Length 106 m; draft 4.5 m.

Type: Cargo ship. MMSI: 431000701.

Date/timePositionNaut miles runAvg speedWind from/ knotsBaromVisibWave heightAir tempDewpointWater temp
2018-Apr-20 00:57N 33°37' E 131°15'0 0.0
2018-Apr-20 00:30N 33°37' E 131°15'0 0.0
2018-Apr-19 23:57N 33°37' E 131°15'0 0.0
2018-Apr-19 23:30N 33°37' E 131°15'0 0.0
2018-Apr-19 22:57N 33°37' E 131°15'0 0.0
2018-Apr-19 22:30N 33°37' E 131°15'0 0.0
2018-Apr-19 22:00N 33°37' E 131°15'2 4.4
2018-Apr-19 21:30N 33°39' E 131°16'1 1.2
2018-Apr-19 21:00N 33°39' E 131°16'714.9
2018-Apr-19 20:30N 33°43' E 131°24'815.1
2018-Apr-19 20:00N 33°45' E 131°33'714.7
2018-Apr-19 19:30N 33°46' E 131°42'714.8
2018-Apr-19 19:00N 33°46' E 131°51'815.1
2018-Apr-19 18:30N 33°45' E 131°60'1015.9
2018-Apr-19 17:54N 33°49' E 132°10'815.6
2018-Apr-19 17:23N 33°50' E 132°20'915.6
2018-Apr-19 16:48N 33°53' E 132°31'515.2
2018-Apr-19 16:28N 33°54' E 132°36'714.1
2018-Apr-19 16:00N 33°58' E 132°43'80 9.3
2018-Apr-19 07:22N 34°24' E 134°14'514.5
2018-Apr-19 07:00N 34°25' E 134°21'815.3
2018-Apr-19 06:30N 34°28' E 134°30'815.3
2018-Apr-19 06:00N 34°31' E 134°38'714.9
2018-Apr-19 05:30N 34°33' E 134°47'714.3
2018-Apr-19 05:00N 34°36' E 134°55'613.0
2018-Apr-19 04:30N 34°36' E 135°03'714.6
2018-Apr-19 04:01N 34°36' E 135°11'815.0
2018-Apr-19 03:30N 34°39' E 135°20'3 6.4
2018-Apr-19 02:58N 34°41' E 135°23'0 0.1
2018-Apr-19 02:28N 34°41' E 135°23'0 0.0
2018-Apr-19 01:58N 34°41' E 135°23'0 0.1
2018-Apr-19 01:28N 34°41' E 135°23'0 0.0
2018-Apr-19 00:58N 34°41' E 135°23'0 0.0
2018-Apr-19 00:28N 34°41' E 135°23'0 0.0
2018-Apr-18 23:58N 34°41' E 135°23'0 0.0
2018-Apr-18 23:28N 34°41' E 135°23'2 3.4
2018-Apr-18 23:01N 34°40' E 135°22'1 2.1
2018-Apr-18 22:29N 34°40' E 135°21'0 0.0
2018-Apr-18 22:00N 34°40' E 135°21'0 0.0
2018-Apr-18 21:30N 34°40' E 135°21'0 0.0
2018-Apr-18 21:00N 34°40' E 135°21'0 0.0
2018-Apr-18 20:30N 34°40' E 135°21'0 0.0
2018-Apr-18 19:59N 34°40' E 135°21'0 0.0
2018-Apr-18 19:29N 34°40' E 135°21'0 0.0
2018-Apr-18 19:00N 34°40' E 135°21'1 2.4
2018-Apr-18 18:30N 34°39' E 135°20'714.3
2018-Apr-18 18:01N 34°35' E 135°13'714.7
2018-Apr-18 17:30N 34°35' E 135°04'814.9
2018-Apr-18 17:00N 34°35' E 134°55'714.9
2018-Apr-18 16:30N 34°32' E 134°46'714.7
2018-Apr-18 16:00N 34°30' E 134°38'815.1
2018-Apr-18 15:30N 34°27' E 134°30'815.0
2018-Apr-18 15:00N 34°24' E 134°21'714.3
2018-Apr-18 14:30N 34°24' E 134°12'7212.9
2018-Apr-18 08:57N 34°04' E 132°49'614.7
2018-Apr-18 08:30N 33°59' E 132°44'7 8.5
2018-Apr-18 07:37N 33°52' E 132°42'0 0.0
2018-Apr-18 07:18N 33°52' E 132°42'1 3.0
2018-Apr-18 07:00N 33°52' E 132°42'815.2
2018-Apr-18 06:30N 33°49' E 132°33'714.6
2018-Apr-18 06:01N 33°46' E 132°26'714.6
2018-Apr-18 05:31N 33°44' E 132°17'714.7
2018-Apr-18 05:00N 33°41' E 132°09'815.4
2018-Apr-18 04:31N 33°42' E 131°60'816.2
2018-Apr-18 04:00N 33°44' E 131°50'817.0
2018-Apr-18 03:31N 33°46' E 131°40'816.4
2018-Apr-18 03:01N 33°44' E 131°31'816.5
2018-Apr-18 02:30N 33°40' E 131°22'713.1
2018-Apr-18 02:00N 33°37' E 131°15'0 0.0
2018-Apr-18 01:30N 33°37' E 131°15'0 0.0
2018-Apr-18 01:00N 33°37' E 131°15'0 0.0
2018-Apr-18 00:30N 33°37' E 131°15'0 0.0
2018-Apr-18 00:00N 33°37' E 131°15'0 0.0
2018-Apr-17 23:30N 33°37' E 131°15'0 0.0
2018-Apr-17 23:00N 33°37' E 131°15'0 0.0
2018-Apr-17 22:30N 33°37' E 131°15'0 0.0
2018-Apr-17 22:00N 33°37' E 131°15'3 6.4
2018-Apr-17 21:30N 33°40' E 131°17'0 0.3
2018-Apr-17 20:58N 33°39' E 131°17'0 0.2
2018-Apr-17 20:30N 33°39' E 131°16'0 0.3
2018-Apr-17 20:00N 33°39' E 131°16'5 9.6
2018-Apr-17 19:30N 33°42' E 131°21'815.0
2018-Apr-17 19:00N 33°46' E 131°29'714.5
2018-Apr-17 18:30N 33°47' E 131°38'714.6
2018-Apr-17 18:00N 33°46' E 131°46'814.8
2018-Apr-17 17:30N 33°45' E 131°55'815.3
2018-Apr-17 17:00N 33°46' E 132°04'916.0
2018-Apr-17 16:27N 33°50' E 132°14'716.0
2018-Apr-17 16:00N 33°50' E 132°22'816.1
2018-Apr-17 15:30N 33°53' E 132°32'715.2
2018-Apr-17 15:00N 33°56' E 132°40'713.8
2018-Apr-17 14:30N 34°01' E 132°45'83 9.0
2018-Apr-17 05:21N 34°25' E 134°21'515.3
2018-Apr-17 05:00N 34°27' E 134°27'815.4
2018-Apr-17 04:31N 34°30' E 134°36'815.2
2018-Apr-17 04:00N 34°33' E 134°44'815.3
2018-Apr-17 03:30N 34°35' E 134°53'714.2
2018-Apr-17 03:01N 34°37' E 135°01'815.2
2018-Apr-17 02:30N 34°36' E 135°10'815.9
2018-Apr-17 02:00N 34°39' E 135°19'4 7.4
2018-Apr-17 01:28N 34°41' E 135°23'0 0.1
2018-Apr-17 00:58N 34°41' E 135°23'0 0.0
2018-Apr-17 00:28N 34°41' E 135°23'0 0.1
2018-Apr-16 23:58N 34°41' E 135°23'0 0.0
2018-Apr-16 23:28N 34°41' E 135°23'0 0.0
2018-Apr-16 22:58N 34°41' E 135°23'0 0.1
2018-Apr-16 22:28N 34°41' E 135°23'0 0.0
2018-Apr-16 21:58N 34°41' E 135°23'0 0.1
2018-Apr-16 21:28N 34°41' E 135°23'0 0.0
2018-Apr-16 20:58N 34°41' E 135°23'0 0.1
2018-Apr-16 20:28N 34°41' E 135°23'0 0.1
2018-Apr-16 19:58N 34°41' E 135°23'0 0.0
2018-Apr-16 19:28N 34°41' E 135°23'0 0.0
2018-Apr-16 18:58N 34°41' E 135°23'0 0.0
2018-Apr-16 18:28N 34°41' E 135°23'0 0.0
2018-Apr-16 17:58N 34°41' E 135°23'0 0.0
2018-Apr-16 17:28N 34°41' E 135°23'0 0.0
2018-Apr-16 16:58N 34°41' E 135°23'0 0.0
2018-Apr-16 16:28N 34°41' E 135°23'0 0.0
2018-Apr-16 15:58N 34°41' E 135°23'0 0.0
2018-Apr-16 15:28N 34°41' E 135°23'0 0.0
2018-Apr-16 14:58N 34°41' E 135°23'0 0.0
2018-Apr-16 14:28N 34°41' E 135°23'0 0.0
2018-Apr-16 13:58N 34°41' E 135°23'0 0.0
2018-Apr-16 13:28N 34°41' E 135°23'0 0.0
2018-Apr-16 12:58N 34°41' E 135°23'0 0.0
2018-Apr-16 12:28N 34°41' E 135°23'0 0.0
2018-Apr-16 11:58N 34°41' E 135°23'0 0.0
2018-Apr-16 11:28N 34°41' E 135°23'0 0.0
2018-Apr-16 10:58N 34°41' E 135°23'0 0.0
2018-Apr-16 10:28N 34°41' E 135°23'0 0.0
2018-Apr-16 09:58N 34°41' E 135°23'0 0.0
2018-Apr-16 09:28N 34°41' E 135°23'0 0.0
2018-Apr-16 08:58N 34°41' E 135°23'0 0.0
2018-Apr-16 08:28N 34°41' E 135°23'0 0.1
2018-Apr-16 07:58N 34°41' E 135°23'0 0.1
2018-Apr-16 07:28N 34°41' E 135°23'0 0.0
2018-Apr-16 06:58N 34°41' E 135°23'0 0.0
2018-Apr-16 06:28N 34°41' E 135°23'0 0.0
2018-Apr-16 05:58N 34°41' E 135°23'0 0.0
2018-Apr-16 05:28N 34°41' E 135°23'0 0.0
2018-Apr-16 04:58N 34°41' E 135°23'0 0.1
2018-Apr-16 04:28N 34°41' E 135°23'0 0.1
2018-Apr-16 03:58N 34°41' E 135°23'0 0.0
2018-Apr-16 03:28N 34°41' E 135°23'0 0.0
2018-Apr-16 02:58N 34°41' E 135°23'0 0.1
2018-Apr-16 02:25N 34°41' E 135°23'0 0.1
2018-Apr-16 01:58N 34°41' E 135°23'0 0.0
2018-Apr-16 01:28N 34°41' E 135°23'0 0.0
2018-Apr-16 00:58N 34°41' E 135°23'0 0.0
2018-Apr-16 00:28N 34°41' E 135°23'0 0.0
2018-Apr-15 23:58N 34°41' E 135°23'0 0.0
2018-Apr-15 23:28N 34°41' E 135°23'0 0.1
2018-Apr-15 22:58N 34°41' E 135°23'0 0.1
2018-Apr-15 22:28N 34°41' E 135°23'0 0.0
2018-Apr-15 21:58N 34°41' E 135°23'0 0.0
2018-Apr-15 21:28N 34°41' E 135°23'0 0.0
2018-Apr-15 20:58N 34°41' E 135°23'0 0.1
2018-Apr-15 20:28N 34°41' E 135°23'0 0.1
2018-Apr-15 19:58N 34°41' E 135°23'0 0.0
2018-Apr-15 19:28N 34°41' E 135°23'0 0.1
2018-Apr-15 18:58N 34°41' E 135°23'0 0.1
2018-Apr-15 18:28N 34°41' E 135°23'0 0.0
2018-Apr-15 17:58N 34°41' E 135°23'0 0.0
2018-Apr-15 17:28N 34°41' E 135°23'0 0.0
2018-Apr-15 16:58N 34°41' E 135°23'0 0.0
2018-Apr-15 16:28N 34°41' E 135°23'0 0.0
2018-Apr-15 15:58N 34°41' E 135°23'0 0.0
2018-Apr-15 15:28N 34°41' E 135°23'0 0.0
2018-Apr-15 14:58N 34°41' E 135°23'0 0.0
2018-Apr-15 14:28N 34°41' E 135°23'0 0.0
2018-Apr-15 13:58N 34°41' E 135°23'0 0.0
2018-Apr-15 13:28N 34°41' E 135°23'0 0.0
2018-Apr-15 12:58N 34°41' E 135°23'0 0.0
2018-Apr-15 12:28N 34°41' E 135°23'0 0.0
2018-Apr-15 11:58N 34°41' E 135°23'0 0.0
2018-Apr-15 11:25N 34°41' E 135°23'0 0.0
2018-Apr-15 10:58N 34°41' E 135°23'0 0.0
2018-Apr-15 10:28N 34°41' E 135°23'0 0.0
2018-Apr-15 09:58N 34°41' E 135°23'0 0.0
2018-Apr-15 09:28N 34°41' E 135°23'0 0.1
2018-Apr-15 08:58N 34°41' E 135°23'0 0.1
2018-Apr-15 08:28N 34°41' E 135°23'0 0.1
2018-Apr-15 07:58N 34°41' E 135°23'0 0.1
2018-Apr-15 07:28N 34°41' E 135°23'0 0.0
2018-Apr-15 06:58N 34°41' E 135°23'0 0.0
2018-Apr-15 06:28N 34°41' E 135°23'0 0.0
2018-Apr-15 05:58N 34°41' E 135°23'0 0.0
2018-Apr-15 05:28N 34°41' E 135°23'0 0.1
2018-Apr-15 04:58N 34°41' E 135°23'0 0.1
2018-Apr-15 04:28N 34°41' E 135°23'0 0.0
2018-Apr-15 03:58N 34°41' E 135°23'0 0.0
2018-Apr-15 03:28N 34°41' E 135°23'0 0.0
2018-Apr-15 02:58N 34°41' E 135°23'0 0.1
2018-Apr-15 02:28N 34°41' E 135°23'0 0.1
2018-Apr-15 01:58N 34°41' E 135°23'0 0.1
2018-Apr-15 01:28N 34°41' E 135°23'0 0.1
2018-Apr-15 00:58N 34°41' E 135°23'0 0.0
2018-Apr-15 00:28N 34°41' E 135°23'0 0.0
2018-Apr-14 23:58N 34°41' E 135°23'0 0.0
2018-Apr-14 23:28N 34°41' E 135°23'0 0.1
2018-Apr-14 22:58N 34°41' E 135°23'0 0.1
2018-Apr-14 22:30N 34°41' E 135°23'4 8.8
2018-Apr-14 22:00N 34°38' E 135°19'815.1
2018-Apr-14 21:31N 34°35' E 135°11'815.0
2018-Apr-14 21:00N 34°36' E 135°02'612.7
2018-Apr-14 20:30N 34°35' E 134°54'815.3
2018-Apr-14 20:00N 34°32' E 134°46'815.5
2018-Apr-14 19:30N 34°29' E 134°37'815.7
2018-Apr-14 19:00N 34°26' E 134°29'815.7
2018-Apr-14 18:30N 34°24' E 134°19'815.9
2018-Apr-14 17:59N 34°25' E 134°10'73 7.9
2018-Apr-14 08:45N 34°01' E 132°46'416.1
2018-Apr-14 08:30N 33°58' E 132°44'610.8
2018-Apr-14 07:56N 33°52' E 132°42'0 0.0
2018-Apr-14 07:27N 33°52' E 132°42'3 6.9
2018-Apr-14 07:00N 33°51' E 132°39'815.4
2018-Apr-14 06:30N 33°50' E 132°30'815.1
2018-Apr-14 06:00N 33°50' E 132°21'815.0
2018-Apr-14 05:30N 33°49' E 132°12'714.2
2018-Apr-14 05:00N 33°46' E 132°04'914.5
2018-Apr-14 04:24N 33°46' E 131°54'614.8
2018-Apr-14 04:00N 33°47' E 131°47'714.6
2018-Apr-14 03:31N 33°47' E 131°38'815.3
2018-Apr-14 03:00N 33°44' E 131°30'816.4
2018-Apr-14 02:30N 33°40' E 131°21'611.7
2018-Apr-14 02:00N 33°37' E 131°15'0 0.0
2018-Apr-14 01:26N 33°37' E 131°15'0 0.0
2018-Apr-14 00:59N 33°37' E 131°15'0 0.0
2018-Apr-14 00:29N 33°37' E 131°15'0 0.0
2018-Apr-13 23:59N 33°37' E 131°15'0 0.0
2018-Apr-13 23:29N 33°37' E 131°15'0 0.0
2018-Apr-13 22:59N 33°37' E 131°15'0 0.0
2018-Apr-13 22:26N 33°37' E 131°15'0 0.0
2018-Apr-13 22:00N 33°37' E 131°15'5 9.7
2018-Apr-13 21:30N 33°41' E 131°18'1 2.0
2018-Apr-13 21:00N 33°41' E 131°19'816.5
2018-Apr-13 20:30N 33°45' E 131°28'816.4
2018-Apr-13 20:01N 33°47' E 131°38'816.8
2018-Apr-13 19:30N 33°46' E 131°48'816.4
2018-Apr-13 19:00N 33°46' E 131°58'916.4
2018-Apr-13 18:27N 33°48' E 132°08'816.0
2018-Apr-13 17:59N 33°50' E 132°17'1416.1
2018-Apr-13 17:08N 33°53' E 132°33'316.9
2018-Apr-13 16:59N 33°54' E 132°35'817.3
2018-Apr-13 16:30N 33°59' E 132°43'84 9.3
2018-Apr-13 07:25N 34°25' E 134°21'615.4
2018-Apr-13 07:00N 34°28' E 134°28'815.3
2018-Apr-13 06:30N 34°30' E 134°36'815.0
2018-Apr-13 06:00N 34°33' E 134°45'714.6
2018-Apr-13 05:30N 34°35' E 134°53'713.5
2018-Apr-13 05:00N 34°37' E 135°01'713.0
2018-Apr-13 04:30N 34°36' E 135°09'815.5
2018-Apr-13 04:01N 34°38' E 135°18'610.5
2018-Apr-13 03:29N 34°41' E 135°23'0 0.0
2018-Apr-13 02:59N 34°41' E 135°23'0 0.0
2018-Apr-13 02:29N 34°41' E 135°23'0 0.1
2018-Apr-13 01:59N 34°41' E 135°23'0 0.0
2018-Apr-13 01:29N 34°41' E 135°23'0 0.1
2018-Apr-13 00:59N 34°41' E 135°23'0 0.0
2018-Apr-13 00:29N 34°41' E 135°23'0 0.1
2018-Apr-12 23:59N 34°41' E 135°23'0 0.0
2018-Apr-12 23:29N 34°41' E 135°23'1 2.6
2018-Apr-12 23:00N 34°40' E 135°22'1 2.2
2018-Apr-12 22:28N 34°40' E 135°21'0 0.0
2018-Apr-12 21:58N 34°40' E 135°21'0 0.0
2018-Apr-12 21:28N 34°40' E 135°21'0 0.0
2018-Apr-12 20:58N 34°40' E 135°21'0 0.0
2018-Apr-12 20:28N 34°40' E 135°21'0 0.0
2018-Apr-12 19:58N 34°40' E 135°21'0 0.0
2018-Apr-12 19:28N 34°40' E 135°21'0 0.0
2018-Apr-12 18:58N 34°40' E 135°21'0 0.0
2018-Apr-12 18:28N 34°40' E 135°21'0 0.0
2018-Apr-12 17:56N 34°40' E 135°21'3 6.1
2018-Apr-12 17:30N 34°38' E 135°18'714.1
2018-Apr-12 17:00N 34°35' E 135°11'815.9
2018-Apr-12 16:31N 34°37' E 135°01'816.4
2018-Apr-12 16:00N 34°34' E 134°52'816.2
2018-Apr-12 15:30N 34°31' E 134°43'815.5
2018-Apr-12 15:00N 34°28' E 134°34'815.7
2018-Apr-12 14:30N 34°25' E 134°25'815.7
2018-Apr-12 14:00N 34°24' E 134°16'7814.2
2018-Apr-12 08:32N 34°01' E 132°46'016.1
2018-Apr-12 08:30N 34°01' E 132°46'816.5
2018-Apr-12 07:59N 33°53' E 132°42'1 1.9
2018-Apr-12 07:14N 33°52' E 132°42'1 2.4
2018-Apr-12 06:58N 33°52' E 132°42'2215.7
2018-Apr-12 05:34N 33°44' E 132°18'1914.9
2018-Apr-12 04:20N 33°43' E 131°55'515.7
2018-Apr-12 04:00N 33°45' E 131°49'816.4
2018-Apr-12 03:30N 33°46' E 131°40'815.8
2018-Apr-12 03:00N 33°44' E 131°31'816.1
2018-Apr-12 02:30N 33°40' E 131°22'713.5
2018-Apr-12 02:00N 33°37' E 131°15'0 0.0
2018-Apr-12 01:30N 33°37' E 131°15'0 0.0
2018-Apr-12 01:00N 33°37' E 131°15'0 0.0
2018-Apr-12 00:30N 33°37' E 131°15'0 0.0
2018-Apr-12 00:00N 33°37' E 131°15'0 0.0
2018-Apr-11 23:30N 33°37' E 131°15'0 0.0
2018-Apr-11 23:00N 33°37' E 131°15'0 0.0
2018-Apr-11 22:30N 33°37' E 131°15'0 0.0
2018-Apr-11 21:58N 33°37' E 131°15'2 4.8
2018-Apr-11 21:31N 33°39' E 131°16'0 0.9
2018-Apr-11 21:00N 33°39' E 131°16'1 1.2
2018-Apr-11 20:30N 33°40' E 131°16'714.5
2018-Apr-11 20:01N 33°43' E 131°23'815.2
2018-Apr-11 19:30N 33°45' E 131°32'815.7
2018-Apr-11 19:00N 33°46' E 131°42'815.3
2018-Apr-11 18:30N 33°46' E 131°51'715.1
2018-Apr-11 18:01N 33°45' E 131°60'915.1
2018-Apr-11 17:24N 33°49' E 132°10'614.7
2018-Apr-11 17:00N 33°50' E 132°17'1015.2
2018-Apr-11 16:22N 33°52' E 132°28'615.7
2018-Apr-11 15:58N 33°54' E 132°36'716.1
2018-Apr-11 15:30N 33°58' E 132°43'8210.2
2018-Apr-11 07:25N 34°25' E 134°17'715.9
2018-Apr-11 07:00N 34°27' E 134°25'815.7
2018-Apr-11 06:30N 34°30' E 134°33'815.4
2018-Apr-11 06:00N 34°32' E 134°42'715.0
2018-Apr-11 05:31N 34°35' E 134°51'714.5
2018-Apr-11 05:00N 34°38' E 134°59'713.1
2018-Apr-11 04:30N 34°36' E 135°07'713.6
2018-Apr-11 04:00N 34°37' E 135°15'713.4
2018-Apr-11 03:30N 34°40' E 135°22'1 2.8
2018-Apr-11 02:59N 34°41' E 135°23'0 0.1
2018-Apr-11 02:29N 34°41' E 135°23'0 0.0
2018-Apr-11 01:59N 34°41' E 135°23'0 0.0
2018-Apr-11 01:29N 34°41' E 135°23'0 0.0
2018-Apr-11 00:59N 34°41' E 135°23'0 0.0
2018-Apr-11 00:29N 34°41' E 135°23'0 0.0
2018-Apr-10 23:59N 34°41' E 135°23'0 0.1
2018-Apr-10 23:29N 34°41' E 135°23'2 3.4
2018-Apr-10 23:00N 34°40' E 135°22'1 1.4
2018-Apr-10 22:30N 34°40' E 135°21'0 0.0
2018-Apr-10 22:00N 34°40' E 135°21'0 0.0
2018-Apr-10 21:30N 34°40' E 135°21'0 0.1
2018-Apr-10 21:00N 34°39' E 135°21'0 0.0
2018-Apr-10 20:30N 34°39' E 135°21'0 0.0
2018-Apr-10 20:00N 34°39' E 135°21'0 0.0
2018-Apr-10 19:30N 34°39' E 135°21'0 0.0
2018-Apr-10 19:00N 34°39' E 135°21'0 0.0
2018-Apr-10 18:30N 34°39' E 135°21'0 0.1
2018-Apr-10 18:00N 34°39' E 135°21'4 7.9
2018-Apr-10 17:31N 34°37' E 135°18'714.6
2018-Apr-10 17:00N 34°35' E 135°09'714.7
2018-Apr-10 16:30N 34°37' E 135°01'815.8
2018-Apr-10 16:00N 34°34' E 134°52'815.7
2018-Apr-10 15:30N 34°31' E 134°43'815.6
2018-Apr-10 15:01N 34°28' E 134°34'815.7
2018-Apr-10 14:31N 34°25' E 134°26'915.6
2018-Apr-10 13:58N 34°24' E 134°15'7713.8
2018-Apr-10 08:23N 34°01' E 132°46'615.9
2018-Apr-10 08:00N 33°56' E 132°43'4 4.4
2018-Apr-10 07:03N 33°51' E 132°42'1 9.0
2018-Apr-10 06:59N 33°52' E 132°42'715.5
2018-Apr-10 06:30N 33°49' E 132°34'815.8
2018-Apr-10 06:00N 33°46' E 132°25'815.6
2018-Apr-10 05:29N 33°43' E 132°16'1115.1
2018-Apr-10 04:45N 33°42' E 132°03'415.5
2018-Apr-10 04:29N 33°43' E 131°58'715.4
2018-Apr-10 04:00N 33°44' E 131°49'815.2
2018-Apr-10 03:30N 33°46' E 131°40'714.9
2018-Apr-10 03:00N 33°44' E 131°31'815.0
2018-Apr-10 02:30N 33°41' E 131°23'815.0
2018-Apr-10 02:00N 33°37' E 131°15'1 1.4
2018-Apr-10 01:27N 33°37' E 131°15'0 0.0
2018-Apr-10 01:00N 33°37' E 131°15'  
Track history (hours):
 
Tides and Currents Weather Stations Pressure Air Temp Water Temp Dewpoint Dewpoint Depression Visibility Wind Speed Wind Dir Waves Ship Positions

Daihatsumaru

Last reported at 2018-Apr-20 00:57 UTC. Time now 2018-Apr-20 01:16 UTC.
Position N 33°37' E 131°15'.

Length 106 m; draft 4.5 m.

Type: Cargo ship. MMSI: 431000701.

Date/timePositionNaut miles runAvg speedWind from/ knotsBaromVisibWave heightAir tempDewpointWater temp
2018-Apr-20 00:57N 33°37' E 131°15'0 0.0
2018-Apr-20 00:30N 33°37' E 131°15'0 0.0
2018-Apr-19 23:57N 33°37' E 131°15'0 0.0
2018-Apr-19 23:30N 33°37' E 131°15'0 0.0
2018-Apr-19 22:57N 33°37' E 131°15'0 0.0
2018-Apr-19 22:30N 33°37' E 131°15'0 0.0
2018-Apr-19 22:00N 33°37' E 131°15'2 4.4
2018-Apr-19 21:30N 33°39' E 131°16'1 1.2
2018-Apr-19 21:00N 33°39' E 131°16'714.9
2018-Apr-19 20:30N 33°43' E 131°24'815.1
2018-Apr-19 20:00N 33°45' E 131°33'714.7
2018-Apr-19 19:30N 33°46' E 131°42'714.8
2018-Apr-19 19:00N 33°46' E 131°51'815.1
2018-Apr-19 18:30N 33°45' E 131°60'1015.9
2018-Apr-19 17:54N 33°49' E 132°10'815.6
2018-Apr-19 17:23N 33°50' E 132°20'915.6
2018-Apr-19 16:48N 33°53' E 132°31'515.2
2018-Apr-19 16:28N 33°54' E 132°36'714.1
2018-Apr-19 16:00N 33°58' E 132°43'80 9.3
2018-Apr-19 07:22N 34°24' E 134°14'514.5
2018-Apr-19 07:00N 34°25' E 134°21'815.3
2018-Apr-19 06:30N 34°28' E 134°30'815.3
2018-Apr-19 06:00N 34°31' E 134°38'714.9
2018-Apr-19 05:30N 34°33' E 134°47'714.3
2018-Apr-19 05:00N 34°36' E 134°55'613.0
2018-Apr-19 04:30N 34°36' E 135°03'714.6
2018-Apr-19 04:01N 34°36' E 135°11'815.0
2018-Apr-19 03:30N 34°39' E 135°20'3 6.4
2018-Apr-19 02:58N 34°41' E 135°23'0 0.1
2018-Apr-19 02:28N 34°41' E 135°23'0 0.0
2018-Apr-19 01:58N 34°41' E 135°23'0 0.1
2018-Apr-19 01:28N 34°41' E 135°23'0 0.0
2018-Apr-19 00:58N 34°41' E 135°23'0 0.0
2018-Apr-19 00:28N 34°41' E 135°23'0 0.0
2018-Apr-18 23:58N 34°41' E 135°23'0 0.0
2018-Apr-18 23:28N 34°41' E 135°23'2 3.4
2018-Apr-18 23:01N 34°40' E 135°22'1 2.1
2018-Apr-18 22:29N 34°40' E 135°21'0 0.0
2018-Apr-18 22:00N 34°40' E 135°21'0 0.0
2018-Apr-18 21:30N 34°40' E 135°21'0 0.0
2018-Apr-18 21:00N 34°40' E 135°21'0 0.0
2018-Apr-18 20:30N 34°40' E 135°21'0 0.0
2018-Apr-18 19:59N 34°40' E 135°21'0 0.0
2018-Apr-18 19:29N 34°40' E 135°21'0 0.0
2018-Apr-18 19:00N 34°40' E 135°21'1 2.4
2018-Apr-18 18:30N 34°39' E 135°20'714.3
2018-Apr-18 18:01N 34°35' E 135°13'714.7
2018-Apr-18 17:30N 34°35' E 135°04'814.9
2018-Apr-18 17:00N 34°35' E 134°55'714.9
2018-Apr-18 16:30N 34°32' E 134°46'714.7
2018-Apr-18 16:00N 34°30' E 134°38'815.1
2018-Apr-18 15:30N 34°27' E 134°30'815.0
2018-Apr-18 15:00N 34°24' E 134°21'714.3
2018-Apr-18 14:30N 34°24' E 134°12'7212.9
2018-Apr-18 08:57N 34°04' E 132°49'614.7
2018-Apr-18 08:30N 33°59' E 132°44'7 8.5
2018-Apr-18 07:37N 33°52' E 132°42'0 0.0
2018-Apr-18 07:18N 33°52' E 132°42'1 3.0
2018-Apr-18 07:00N 33°52' E 132°42'815.2
2018-Apr-18 06:30N 33°49' E 132°33'714.6
2018-Apr-18 06:01N 33°46' E 132°26'714.6
2018-Apr-18 05:31N 33°44' E 132°17'714.7
2018-Apr-18 05:00N 33°41' E 132°09'815.4
2018-Apr-18 04:31N 33°42' E 131°60'816.2
2018-Apr-18 04:00N 33°44' E 131°50'817.0
2018-Apr-18 03:31N 33°46' E 131°40'816.4
2018-Apr-18 03:01N 33°44' E 131°31'816.5
2018-Apr-18 02:30N 33°40' E 131°22'713.1
2018-Apr-18 02:00N 33°37' E 131°15'0 0.0
2018-Apr-18 01:30N 33°37' E 131°15'0 0.0
2018-Apr-18 01:00N 33°37' E 131°15'0 0.0
2018-Apr-18 00:30N 33°37' E 131°15'0 0.0
2018-Apr-18 00:00N 33°37' E 131°15'0 0.0
2018-Apr-17 23:30N 33°37' E 131°15'0 0.0
2018-Apr-17 23:00N 33°37' E 131°15'0 0.0
2018-Apr-17 22:30N 33°37' E 131°15'0 0.0
2018-Apr-17 22:00N 33°37' E 131°15'3 6.4
2018-Apr-17 21:30N 33°40' E 131°17'0 0.3
2018-Apr-17 20:58N 33°39' E 131°17'0 0.2
2018-Apr-17 20:30N 33°39' E 131°16'0 0.3
2018-Apr-17 20:00N 33°39' E 131°16'5 9.6
2018-Apr-17 19:30N 33°42' E 131°21'815.0
2018-Apr-17 19:00N 33°46' E 131°29'714.5
2018-Apr-17 18:30N 33°47' E 131°38'714.6
2018-Apr-17 18:00N 33°46' E 131°46'814.8
2018-Apr-17 17:30N 33°45' E 131°55'815.3
2018-Apr-17 17:00N 33°46' E 132°04'916.0
2018-Apr-17 16:27N 33°50' E 132°14'716.0
2018-Apr-17 16:00N 33°50' E 132°22'816.1
2018-Apr-17 15:30N 33°53' E 132°32'715.2
2018-Apr-17 15:00N 33°56' E 132°40'713.8
2018-Apr-17 14:30N 34°01' E 132°45'83 9.0
2018-Apr-17 05:21N 34°25' E 134°21'515.3
2018-Apr-17 05:00N 34°27' E 134°27'815.4
2018-Apr-17 04:31N 34°30' E 134°36'815.2
2018-Apr-17 04:00N 34°33' E 134°44'815.3
2018-Apr-17 03:30N 34°35' E 134°53'714.2
2018-Apr-17 03:01N 34°37' E 135°01'815.2
2018-Apr-17 02:30N 34°36' E 135°10'815.9
2018-Apr-17 02:00N 34°39' E 135°19'4 7.4
2018-Apr-17 01:28N 34°41' E 135°23'0 0.1
2018-Apr-17 00:58N 34°41' E 135°23'0 0.0
2018-Apr-17 00:28N 34°41' E 135°23'0 0.1
2018-Apr-16 23:58N 34°41' E 135°23'0 0.0
2018-Apr-16 23:28N 34°41' E 135°23'0 0.0
2018-Apr-16 22:58N 34°41' E 135°23'0 0.1
2018-Apr-16 22:28N 34°41' E 135°23'0 0.0
2018-Apr-16 21:58N 34°41' E 135°23'0 0.1
2018-Apr-16 21:28N 34°41' E 135°23'0 0.0
2018-Apr-16 20:58N 34°41' E 135°23'0 0.1
2018-Apr-16 20:28N 34°41' E 135°23'0 0.1
2018-Apr-16 19:58N 34°41' E 135°23'0 0.0
2018-Apr-16 19:28N 34°41' E 135°23'0 0.0
2018-Apr-16 18:58N 34°41' E 135°23'0 0.0
2018-Apr-16 18:28N 34°41' E 135°23'0 0.0
2018-Apr-16 17:58N 34°41' E 135°23'0 0.0
2018-Apr-16 17:28N 34°41' E 135°23'0 0.0
2018-Apr-16 16:58N 34°41' E 135°23'0 0.0
2018-Apr-16 16:28N 34°41' E 135°23'0 0.0
2018-Apr-16 15:58N 34°41' E 135°23'0 0.0
2018-Apr-16 15:28N 34°41' E 135°23'0 0.0
2018-Apr-16 14:58N 34°41' E 135°23'0 0.0
2018-Apr-16 14:28N 34°41' E 135°23'0 0.0
2018-Apr-16 13:58N 34°41' E 135°23'0 0.0
2018-Apr-16 13:28N 34°41' E 135°23'0 0.0
2018-Apr-16 12:58N 34°41' E 135°23'0 0.0
2018-Apr-16 12:28N 34°41' E 135°23'0 0.0
2018-Apr-16 11:58N 34°41' E 135°23'0 0.0
2018-Apr-16 11:28N 34°41' E 135°23'0 0.0
2018-Apr-16 10:58N 34°41' E 135°23'0 0.0
2018-Apr-16 10:28N 34°41' E 135°23'0 0.0
2018-Apr-16 09:58N 34°41' E 135°23'0 0.0
2018-Apr-16 09:28N 34°41' E 135°23'0 0.0
2018-Apr-16 08:58N 34°41' E 135°23'0 0.0
2018-Apr-16 08:28N 34°41' E 135°23'0 0.1
2018-Apr-16 07:58N 34°41' E 135°23'0 0.1
2018-Apr-16 07:28N 34°41' E 135°23'0 0.0
2018-Apr-16 06:58N 34°41' E 135°23'0 0.0
2018-Apr-16 06:28N 34°41' E 135°23'0 0.0
2018-Apr-16 05:58N 34°41' E 135°23'0 0.0
2018-Apr-16 05:28N 34°41' E 135°23'0 0.0
2018-Apr-16 04:58N 34°41' E 135°23'0 0.1
2018-Apr-16 04:28N 34°41' E 135°23'0 0.1
2018-Apr-16 03:58N 34°41' E 135°23'0 0.0
2018-Apr-16 03:28N 34°41' E 135°23'0 0.0
2018-Apr-16 02:58N 34°41' E 135°23'0 0.1
2018-Apr-16 02:25N 34°41' E 135°23'0 0.1
2018-Apr-16 01:58N 34°41' E 135°23'0 0.0
2018-Apr-16 01:28N 34°41' E 135°23'0 0.0
2018-Apr-16 00:58N 34°41' E 135°23'0 0.0
2018-Apr-16 00:28N 34°41' E 135°23'0 0.0
2018-Apr-15 23:58N 34°41' E 135°23'0 0.0
2018-Apr-15 23:28N 34°41' E 135°23'0 0.1
2018-Apr-15 22:58N 34°41' E 135°23'0 0.1
2018-Apr-15 22:28N 34°41' E 135°23'0 0.0
2018-Apr-15 21:58N 34°41' E 135°23'0 0.0
2018-Apr-15 21:28N 34°41' E 135°23'0 0.0
2018-Apr-15 20:58N 34°41' E 135°23'0 0.1
2018-Apr-15 20:28N 34°41' E 135°23'0 0.1
2018-Apr-15 19:58N 34°41' E 135°23'0 0.0
2018-Apr-15 19:28N 34°41' E 135°23'0 0.1
2018-Apr-15 18:58N 34°41' E 135°23'0 0.1
2018-Apr-15 18:28N 34°41' E 135°23'0 0.0
2018-Apr-15 17:58N 34°41' E 135°23'0 0.0
2018-Apr-15 17:28N 34°41' E 135°23'0 0.0
2018-Apr-15 16:58N 34°41' E 135°23'0 0.0
2018-Apr-15 16:28N 34°41' E 135°23'0 0.0
2018-Apr-15 15:58N 34°41' E 135°23'0 0.0
2018-Apr-15 15:28N 34°41' E 135°23'0 0.0
2018-Apr-15 14:58N 34°41' E 135°23'0 0.0
2018-Apr-15 14:28N 34°41' E 135°23'0 0.0
2018-Apr-15 13:58N 34°41' E 135°23'0 0.0
2018-Apr-15 13:28N 34°41' E 135°23'0 0.0
2018-Apr-15 12:58N 34°41' E 135°23'0 0.0
2018-Apr-15 12:28N 34°41' E 135°23'0 0.0
2018-Apr-15 11:58N 34°41' E 135°23'0 0.0
2018-Apr-15 11:25N 34°41' E 135°23'0 0.0
2018-Apr-15 10:58N 34°41' E 135°23'0 0.0
2018-Apr-15 10:28N 34°41' E 135°23'0 0.0
2018-Apr-15 09:58N 34°41' E 135°23'0 0.0
2018-Apr-15 09:28N 34°41' E 135°23'0 0.1
2018-Apr-15 08:58N 34°41' E 135°23'0 0.1
2018-Apr-15 08:28N 34°41' E 135°23'0 0.1
2018-Apr-15 07:58N 34°41' E 135°23'0 0.1
2018-Apr-15 07:28N 34°41' E 135°23'0 0.0
2018-Apr-15 06:58N 34°41' E 135°23'0 0.0
2018-Apr-15 06:28N 34°41' E 135°23'0 0.0
2018-Apr-15 05:58N 34°41' E 135°23'0 0.0
2018-Apr-15 05:28N 34°41' E 135°23'0 0.1
2018-Apr-15 04:58N 34°41' E 135°23'0 0.1
2018-Apr-15 04:28N 34°41' E 135°23'0 0.0
2018-Apr-15 03:58N 34°41' E 135°23'0 0.0
2018-Apr-15 03:28N 34°41' E 135°23'0 0.0
2018-Apr-15 02:58N 34°41' E 135°23'0 0.1
2018-Apr-15 02:28N 34°41' E 135°23'0 0.1
2018-Apr-15 01:58N 34°41' E 135°23'0 0.1
2018-Apr-15 01:28N 34°41' E 135°23'0 0.1
2018-Apr-15 00:58N 34°41' E 135°23'0 0.0
2018-Apr-15 00:28N 34°41' E 135°23'0 0.0
2018-Apr-14 23:58N 34°41' E 135°23'0 0.0
2018-Apr-14 23:28N 34°41' E 135°23'0 0.1
2018-Apr-14 22:58N 34°41' E 135°23'0 0.1
2018-Apr-14 22:30N 34°41' E 135°23'4 8.8
2018-Apr-14 22:00N 34°38' E 135°19'815.1
2018-Apr-14 21:31N 34°35' E 135°11'815.0
2018-Apr-14 21:00N 34°36' E 135°02'612.7
2018-Apr-14 20:30N 34°35' E 134°54'815.3
2018-Apr-14 20:00N 34°32' E 134°46'815.5
2018-Apr-14 19:30N 34°29' E 134°37'815.7
2018-Apr-14 19:00N 34°26' E 134°29'815.7
2018-Apr-14 18:30N 34°24' E 134°19'815.9
2018-Apr-14 17:59N 34°25' E 134°10'73 7.9
2018-Apr-14 08:45N 34°01' E 132°46'416.1
2018-Apr-14 08:30N 33°58' E 132°44'610.8
2018-Apr-14 07:56N 33°52' E 132°42'0 0.0
2018-Apr-14 07:27N 33°52' E 132°42'3 6.9
2018-Apr-14 07:00N 33°51' E 132°39'815.4
2018-Apr-14 06:30N 33°50' E 132°30'815.1
2018-Apr-14 06:00N 33°50' E 132°21'815.0
2018-Apr-14 05:30N 33°49' E 132°12'714.2
2018-Apr-14 05:00N 33°46' E 132°04'914.5
2018-Apr-14 04:24N 33°46' E 131°54'614.8
2018-Apr-14 04:00N 33°47' E 131°47'714.6
2018-Apr-14 03:31N 33°47' E 131°38'815.3
2018-Apr-14 03:00N 33°44' E 131°30'816.4
2018-Apr-14 02:30N 33°40' E 131°21'611.7
2018-Apr-14 02:00N 33°37' E 131°15'0 0.0
2018-Apr-14 01:26N 33°37' E 131°15'0 0.0
2018-Apr-14 00:59N 33°37' E 131°15'0 0.0
2018-Apr-14 00:29N 33°37' E 131°15'0 0.0
2018-Apr-13 23:59N 33°37' E 131°15'0 0.0
2018-Apr-13 23:29N 33°37' E 131°15'0 0.0
2018-Apr-13 22:59N 33°37' E 131°15'0 0.0
2018-Apr-13 22:26N 33°37' E 131°15'0 0.0
2018-Apr-13 22:00N 33°37' E 131°15'5 9.7
2018-Apr-13 21:30N 33°41' E 131°18'1 2.0
2018-Apr-13 21:00N 33°41' E 131°19'816.5
2018-Apr-13 20:30N 33°45' E 131°28'816.4
2018-Apr-13 20:01N 33°47' E 131°38'816.8
2018-Apr-13 19:30N 33°46' E 131°48'816.4
2018-Apr-13 19:00N 33°46' E 131°58'916.4
2018-Apr-13 18:27N 33°48' E 132°08'816.0
2018-Apr-13 17:59N 33°50' E 132°17'1416.1
2018-Apr-13 17:08N 33°53' E 132°33'316.9
2018-Apr-13 16:59N 33°54' E 132°35'817.3
2018-Apr-13 16:30N 33°59' E 132°43'84 9.3
2018-Apr-13 07:25N 34°25' E 134°21'615.4
2018-Apr-13 07:00N 34°28' E 134°28'815.3
2018-Apr-13 06:30N 34°30' E 134°36'815.0
2018-Apr-13 06:00N 34°33' E 134°45'714.6
2018-Apr-13 05:30N 34°35' E 134°53'713.5
2018-Apr-13 05:00N 34°37' E 135°01'713.0
2018-Apr-13 04:30N 34°36' E 135°09'815.5
2018-Apr-13 04:01N 34°38' E 135°18'610.5
2018-Apr-13 03:29N 34°41' E 135°23'0 0.0
2018-Apr-13 02:59N 34°41' E 135°23'0 0.0
2018-Apr-13 02:29N 34°41' E 135°23'0 0.1
2018-Apr-13 01:59N 34°41' E 135°23'0 0.0
2018-Apr-13 01:29N 34°41' E 135°23'0 0.1
2018-Apr-13 00:59N 34°41' E 135°23'0 0.0
2018-Apr-13 00:29N 34°41' E 135°23'0 0.1
2018-Apr-12 23:59N 34°41' E 135°23'0 0.0
2018-Apr-12 23:29N 34°41' E 135°23'1 2.6
2018-Apr-12 23:00N 34°40' E 135°22'1 2.2
2018-Apr-12 22:28N 34°40' E 135°21'0 0.0
2018-Apr-12 21:58N 34°40' E 135°21'0 0.0
2018-Apr-12 21:28N 34°40' E 135°21'0 0.0
2018-Apr-12 20:58N 34°40' E 135°21'0 0.0
2018-Apr-12 20:28N 34°40' E 135°21'0 0.0
2018-Apr-12 19:58N 34°40' E 135°21'0 0.0
2018-Apr-12 19:28N 34°40' E 135°21'0 0.0
2018-Apr-12 18:58N 34°40' E 135°21'0 0.0
2018-Apr-12 18:28N 34°40' E 135°21'0 0.0
2018-Apr-12 17:56N 34°40' E 135°21'3 6.1
2018-Apr-12 17:30N 34°38' E 135°18'714.1
2018-Apr-12 17:00N 34°35' E 135°11'815.9
2018-Apr-12 16:31N 34°37' E 135°01'816.4
2018-Apr-12 16:00N 34°34' E 134°52'816.2
2018-Apr-12 15:30N 34°31' E 134°43'815.5
2018-Apr-12 15:00N 34°28' E 134°34'815.7
2018-Apr-12 14:30N 34°25' E 134°25'815.7
2018-Apr-12 14:00N 34°24' E 134°16'7814.2
2018-Apr-12 08:32N 34°01' E 132°46'016.1
2018-Apr-12 08:30N 34°01' E 132°46'816.5
2018-Apr-12 07:59N 33°53' E 132°42'1 1.9
2018-Apr-12 07:14N 33°52' E 132°42'1 2.4
2018-Apr-12 06:58N 33°52' E 132°42'2215.7
2018-Apr-12 05:34N 33°44' E 132°18'1914.9
2018-Apr-12 04:20N 33°43' E 131°55'515.7
2018-Apr-12 04:00N 33°45' E 131°49'816.4
2018-Apr-12 03:30N 33°46' E 131°40'815.8
2018-Apr-12 03:00N 33°44' E 131°31'816.1
2018-Apr-12 02:30N 33°40' E 131°22'713.5
2018-Apr-12 02:00N 33°37' E 131°15'0 0.0
2018-Apr-12 01:30N 33°37' E 131°15'0 0.0
2018-Apr-12 01:00N 33°37' E 131°15'0 0.0
2018-Apr-12 00:30N 33°37' E 131°15'0 0.0
2018-Apr-12 00:00N 33°37' E 131°15'0 0.0
2018-Apr-11 23:30N 33°37' E 131°15'0 0.0
2018-Apr-11 23:00N 33°37' E 131°15'0 0.0
2018-Apr-11 22:30N 33°37' E 131°15'0 0.0
2018-Apr-11 21:58N 33°37' E 131°15'2 4.8
2018-Apr-11 21:31N 33°39' E 131°16'0 0.9
2018-Apr-11 21:00N 33°39' E 131°16'1 1.2
2018-Apr-11 20:30N 33°40' E 131°16'714.5
2018-Apr-11 20:01N 33°43' E 131°23'815.2
2018-Apr-11 19:30N 33°45' E 131°32'815.7
2018-Apr-11 19:00N 33°46' E 131°42'815.3
2018-Apr-11 18:30N 33°46' E 131°51'715.1
2018-Apr-11 18:01N 33°45' E 131°60'915.1
2018-Apr-11 17:24N 33°49' E 132°10'614.7
2018-Apr-11 17:00N 33°50' E 132°17'1015.2
2018-Apr-11 16:22N 33°52' E 132°28'615.7
2018-Apr-11 15:58N 33°54' E 132°36'716.1
2018-Apr-11 15:30N 33°58' E 132°43'8210.2
2018-Apr-11 07:25N 34°25' E 134°17'715.9
2018-Apr-11 07:00N 34°27' E 134°25'815.7
2018-Apr-11 06:30N 34°30' E 134°33'815.4
2018-Apr-11 06:00N 34°32' E 134°42'715.0
2018-Apr-11 05:31N 34°35' E 134°51'714.5
2018-Apr-11 05:00N 34°38' E 134°59'713.1
2018-Apr-11 04:30N 34°36' E 135°07'713.6
2018-Apr-11 04:00N 34°37' E 135°15'713.4
2018-Apr-11 03:30N 34°40' E 135°22'1 2.8
2018-Apr-11 02:59N 34°41' E 135°23'0 0.1
2018-Apr-11 02:29N 34°41' E 135°23'0 0.0
2018-Apr-11 01:59N 34°41' E 135°23'0 0.0
2018-Apr-11 01:29N 34°41' E 135°23'0 0.0
2018-Apr-11 00:59N 34°41' E 135°23'0 0.0
2018-Apr-11 00:29N 34°41' E 135°23'0 0.0
2018-Apr-10 23:59N 34°41' E 135°23'0 0.1
2018-Apr-10 23:29N 34°41' E 135°23'2 3.4
2018-Apr-10 23:00N 34°40' E 135°22'1 1.4
2018-Apr-10 22:30N 34°40' E 135°21'0 0.0
2018-Apr-10 22:00N 34°40' E 135°21'0 0.0
2018-Apr-10 21:30N 34°40' E 135°21'0 0.1
2018-Apr-10 21:00N 34°39' E 135°21'0 0.0
2018-Apr-10 20:30N 34°39' E 135°21'0 0.0
2018-Apr-10 20:00N 34°39' E 135°21'0 0.0
2018-Apr-10 19:30N 34°39' E 135°21'0 0.0
2018-Apr-10 19:00N 34°39' E 135°21'0 0.0
2018-Apr-10 18:30N 34°39' E 135°21'0 0.1
2018-Apr-10 18:00N 34°39' E 135°21'4 7.9
2018-Apr-10 17:31N 34°37' E 135°18'714.6
2018-Apr-10 17:00N 34°35' E 135°09'714.7
2018-Apr-10 16:30N 34°37' E 135°01'815.8
2018-Apr-10 16:00N 34°34' E 134°52'815.7
2018-Apr-10 15:30N 34°31' E 134°43'815.6
2018-Apr-10 15:01N 34°28' E 134°34'815.7
2018-Apr-10 14:31N 34°25' E 134°26'915.6
2018-Apr-10 13:58N 34°24' E 134°15'7713.8
2018-Apr-10 08:23N 34°01' E 132°46'615.9
2018-Apr-10 08:00N 33°56' E 132°43'4 4.4
2018-Apr-10 07:03N 33°51' E 132°42'1 9.0
2018-Apr-10 06:59N 33°52' E 132°42'715.5
2018-Apr-10 06:30N 33°49' E 132°34'815.8
2018-Apr-10 06:00N 33°46' E 132°25'815.6
2018-Apr-10 05:29N 33°43' E 132°16'1115.1
2018-Apr-10 04:45N 33°42' E 132°03'415.5
2018-Apr-10 04:29N 33°43' E 131°58'715.4
2018-Apr-10 04:00N 33°44' E 131°49'815.2
2018-Apr-10 03:30N 33°46' E 131°40'714.9
2018-Apr-10 03:00N 33°44' E 131°31'815.0
2018-Apr-10 02:30N 33°41' E 131°23'815.0
2018-Apr-10 02:00N 33°37' E 131°15'1 1.4
2018-Apr-10 01:27N 33°37' E 131°15'0 0.0
2018-Apr-10 01:00N 33°37' E 131°15'  

Dump ship's entire track history